Latest Weather Observations for Stawell

IDV60801

Issued at 12:32 pm EST Wednesday 21 April 2021 (issued every 10 minutes, with the page automatically refreshed every 10 minutes)

About weather observations | Map of weather stations | Latest weather observations for VIC | Other Formats
Station Details ID: 079105 Name: STAWELL AERODROME Lat: -37.07 Lon: 142.74 Height: 235.36 m
Data from the previous 72 hours. | See also: Recent months at Stawell
Date/Time
EST
Temp
°C
App
Temp
°C
Dew
Point
°C
Rel
Hum
%
Delta-T
°C
Wind Press
QNH
hPa
Press
MSL
hPa
Rain since
9am
mm
Dir  Spd
km/h
Gust
km/h
Spd
kts
Gust
kts
21/12:30pm 12.4 7.7 0.8 45 4.9 NNW 15 20 8 11 1017.8 1017.6 0.0
21/12:00pm 11.8 6.7 0.6 46 4.7 N 17 20 9 11 1018.3 1018.1 0.0
21/11:30am 11.5 7.9 0.9 48 4.5 N 9 15 5 8 1018.6 1018.4 0.0
21/11:00am 11.0 7.4 0.7 49 4.3 NNW 9 13 5 7 1019.0 1018.8 0.0
21/10:30am 10.2 7.1 3.5 63 3.0 NNW 9 15 5 8 1019.3 1019.1 0.0
21/10:00am 9.4 5.8 3.2 65 2.7 NNW 11 15 6 8 1019.4 1019.2 0.0
21/09:30am 8.4 5.8 4.0 74 1.9 NNW 7 11 4 6 1019.6 1019.4 0.0
21/09:00am 7.2 5.0 3.1 75 1.7 NE 4 6 2 3 1019.4 1019.2 5.4
21/08:30am 5.6 2.9 3.6 87 0.9 E 7 9 4 5 1019.0 1018.8 5.4
21/08:00am 3.8 0.6 2.9 94 0.4 E 9 11 5 6 1018.8 1018.6 5.4
21/07:30am 2.3 -1.5 1.7 96 0.2 SE 11 13 6 7 1018.7 1018.5 5.4
21/07:00am 2.1 -1.4 1.5 96 0.2 SE 9 11 5 6 1018.8 1018.6 5.4
21/06:30am 2.2 -0.9 1.6 96 0.2 ESE 7 9 4 5 1018.7 1018.5 5.4
21/06:00am 1.7 -2.2 1.1 96 0.2 SE 11 15 6 8 1018.5 1018.3 5.4
21/05:30am 1.6 -1.6 1.0 96 0.2 W 7 9 4 5 1018.5 1018.3 5.4
21/05:00am 1.2 -0.7 0.5 95 0.3 CALM 0 0 0 0 1018.2 1018.0 5.4
21/04:30am 0.9 -2.8 0.0 94 0.3 WNW 9 9 5 5 1018.2 1018.0 5.4
21/04:00am 2.1 -0.8 1.2 94 0.3 W 6 7 3 4 1017.9 1017.7 5.4
21/03:30am 2.8 1.1 1.8 93 0.4 CALM 0 4 0 2 1018.0 1017.8 5.2
21/03:00am 2.9 0.0 1.7 92 0.5 WSW 6 9 3 5 1018.0 1017.8 5.2
21/02:30am 2.6 -0.8 1.6 93 0.4 SW 9 11 5 6 1018.1 1017.9 5.2
21/02:00am 2.7 -0.5 0.9 88 0.7 SW 7 7 4 4 1018.3 1018.1 5.2
21/01:30am 4.2 0.9 2.2 87 0.8 SSW 9 11 5 6 1018.3 1018.1 5.2
21/01:00am 4.2 0.8 1.9 85 0.9 SW 9 9 5 5 1018.1 1017.9 5.2
21/12:30am 5.6 2.4 2.8 82 1.2 SW 9 13 5 7 1018.1 1017.9 5.2
21/12:00am 4.9 1.3 3.2 89 0.7 WSW 11 17 6 9 1018.4 1018.2 5.2
 
Date/Time
EST
Temp
°C
App
Temp
°C
Dew
Point
°C
Rel
Hum
%
Delta-T
°C
Wind Press
QNH
hPa
Press
MSL
hPa
Rain since
9am
mm
Dir  Spd
km/h
Gust
km/h
Spd
kts
Gust
kts
20/11:30pm 5.7 2.3 1.6 75 1.7 SW 9 13 5 7 1018.2 1018.0 5.2
20/11:00pm 6.3 2.5 2.0 74 1.8 SSW 11 19 6 10 1018.2 1018.0 5.2
20/10:30pm 6.9 3.1 2.0 71 2.0 SSW 11 17 6 9 1018.1 1017.9 5.2
20/10:00pm 7.3 2.8 2.4 71 2.1 SSW 15 20 8 11 1017.9 1017.7 5.2
20/09:30pm 7.4 3.0 2.7 72 2.0 SSW 15 24 8 13 1017.6 1017.4 5.2
20/09:00pm 7.4 2.7 2.9 73 1.9 SSW 17 22 9 12 1017.4 1017.2 5.2
20/08:30pm 7.4 3.1 3.1 74 1.8 SSW 15 24 8 13 1017.0 1016.7 5.2
20/08:00pm 7.8 3.5 3.5 74 1.9 SSW 15 22 8 12 1016.6 1016.3 5.2
20/07:30pm 7.9 3.2 3.4 73 1.9 SSW 17 28 9 15 1016.5 1016.2 5.2
20/07:00pm 8.5 4.3 3.6 71 2.1 S 15 26 8 14 1016.1 1015.8 5.2
20/06:30pm 8.5 3.5 3.6 71 2.1 S 19 28 10 15 1015.7 1015.4 5.2
20/06:00pm 9.3 3.7 3.3 66 2.6 S 22 35 12 19 1015.3 1015.1 5.2
20/05:30pm 10.2 4.4 4.4 67 2.6 S 24 41 13 22 1014.6 1014.4 5.2
20/05:00pm 9.9 5.8 4.1 67 2.6 S 15 24 8 13 1014.2 1014.0 5.2
20/04:30pm 10.1 5.9 5.7 74 2.0 SSW 17 26 9 14 1013.8 1013.6 5.2
20/04:00pm 9.6 5.3 7.2 85 1.1 S 19 32 10 17 1013.5 1013.3 5.2
20/03:30pm 9.4 3.5 7.3 87 1.0 S 28 44 15 24 1013.3 1013.0 5.0
20/03:17pm 10.3 4.1 6.3 76 1.9 SSW 28 48 15 26 1013.1 1012.8 4.6
20/03:00pm 11.0 6.7 7.1 77 1.9 SSW 19 28 10 15 1012.7 1012.4 4.6
20/02:30pm 9.6 4.7 6.9 83 1.3 SSW 22 35 12 19 1012.7 1012.4 4.6
20/02:22pm 10.0 3.5 6.5 79 1.7 SSW 30 48 16 26 1012.7 1012.4 4.4
20/02:13pm 11.0 5.6 6.2 72 2.3 S 24 48 13 26 1012.2 1011.9 4.4
20/02:00pm 12.0 8.0 8.1 77 1.9 SSW 19 28 10 15 1012.0 1011.7 4.4
20/01:30pm 11.2 7.2 8.1 81 1.5 SSW 19 33 10 18 1011.9 1011.6 4.4
20/01:00pm 9.5 4.9 8.3 92 0.6 S 22 33 12 18 1012.2 1011.9 4.4
20/12:30pm 10.6 8.4 9.2 91 0.7 SSW 11 22 6 12 1012.3 1012.0 3.8
20/12:00pm 10.7 9.5 9.5 92 0.6 E 6 7 3 4 1012.2 1011.9 3.8
20/11:30am 10.6 9.7 9.4 92 0.6 ENE 4 9 2 5 1012.2 1011.9 3.8
20/11:00am 10.6 8.8 9.4 92 0.6 SE 9 17 5 9 1011.9 1011.6 3.4
20/10:30am 10.9 8.3 9.2 89 0.9 SW 13 20 7 11 1012.3 1012.0 1.0
20/10:00am 13.9 9.3 6.7 62 3.5 NW 20 39 11 21 1011.6 1011.3 0.0
20/09:30am 13.6 8.9 6.0 60 3.7 NW 20 30 11 16 1011.5 1011.2 0.0
20/09:00am 12.9 8.7 5.8 62 3.4 NW 17 20 9 11 1011.7 1011.4 0.0
20/08:30am 11.8 7.0 5.4 65 3.0 NNW 20 28 11 15 1011.6 1011.3 0.0
20/08:00am 11.7 7.5 5.6 66 2.9 NW 17 24 9 13 1011.8 1011.5 0.0
20/07:30am 11.1 7.6 5.6 69 2.6 NNW 13 20 7 11 1011.4 1011.1 0.0
20/07:00am 11.0 7.6 6.0 71 2.4 NNW 13 24 7 13 1011.2 1010.9 0.0
20/06:30am 11.1 8.2 6.3 72 2.3 N 11 19 6 10 1011.2 1010.9 0.0
20/06:00am 11.8 8.5 6.5 70 2.5 N 13 17 7 9 1011.2 1010.9 0.0
20/05:30am 12.2 9.0 6.7 69 2.7 NNW 13 19 7 10 1011.4 1011.1 0.0
20/05:00am 12.3 8.7 6.8 69 2.7 NNW 15 20 8 11 1011.4 1011.1 0.0
20/04:30am 12.2 8.6 6.7 69 2.7 NNW 15 20 8 11 1011.7 1011.4 0.0
20/04:00am 12.6 8.7 7.1 69 2.7 NNW 17 20 9 11 1011.8 1011.5 0.0
20/03:30am 12.8 9.8 7.5 70 2.6 NNW 13 19 7 10 1011.9 1011.6 0.0
20/03:00am 12.7 10.1 7.6 71 2.5 NW 11 15 6 8 1012.2 1011.9 0.0
20/02:30am 12.7 10.1 7.6 71 2.5 NNW 11 15 6 8 1012.4 1012.1 0.0
20/02:00am 12.9 10.2 7.4 69 2.7 NNW 11 15 6 8 1012.7 1012.4 0.0
20/01:30am 13.3 10.5 7.1 66 3.0 N 11 15 6 8 1013.0 1012.7 0.0
20/01:00am 13.9 11.5 7.2 64 3.3 NNW 9 13 5 7 1013.2 1012.9 0.0
20/12:30am 14.1 11.7 6.9 62 3.5 NNW 9 13 5 7 1013.2 1012.9 0.0
20/12:00am 14.3 11.1 6.9 61 3.6 NNW 13 15 7 8 1013.6 1013.4 0.0
 
Date/Time
EST
Temp
°C
App
Temp
°C
Dew
Point
°C
Rel
Hum
%
Delta-T
°C
Wind Press
QNH
hPa
Press
MSL
hPa
Rain since
9am
mm
Dir  Spd
km/h
Gust
km/h
Spd
kts
Gust
kts
19/11:30pm 14.2 11.0 6.8 61 3.6 NNW 13 17 7 9 1013.7 1013.5 0.0
19/11:00pm 14.7 11.9 6.8 59 3.9 NNW 11 13 6 7 1014.0 1013.8 0.0
19/10:30pm 15.5 12.3 7.0 57 4.2 NW 13 20 7 11 1014.2 1014.0 0.0
19/10:00pm 15.6 12.3 6.6 55 4.4 NW 13 17 7 9 1014.4 1014.2 0.0
19/09:30pm 15.8 12.5 6.5 54 4.6 NNW 13 17 7 9 1014.5 1014.3 0.0
19/09:00pm 15.9 13.3 6.1 52 4.8 NNW 9 13 5 7 1014.5 1014.3 0.0
19/08:30pm 16.2 12.1 6.1 51 5.0 NW 17 24 9 13 1014.4 1014.2 0.0
19/08:00pm 16.3 12.2 6.2 51 5.0 NW 17 24 9 13 1014.6 1014.4 0.0
19/07:30pm 16.3 12.5 5.9 50 5.1 NW 15 24 8 13 1014.6 1014.4 0.0
19/07:00pm 16.8 12.8 4.8 45 5.8 NW 15 20 8 11 1014.4 1014.2 0.0
19/06:30pm 17.3 12.2 4.3 42 6.2 NW 20 28 11 15 1014.1 1013.9 0.0
19/06:00pm 17.7 13.1 3.6 39 6.7 NW 17 26 9 14 1013.8 1013.6 0.0
19/05:30pm 17.9 13.7 3.8 39 6.7 NW 15 22 8 12 1013.9 1013.7 0.0
19/05:00pm 18.2 14.1 4.4 40 6.6 NW 15 24 8 13 1014.0 1013.8 0.0
19/04:30pm 18.4 13.6 4.9 41 6.6 NW 19 24 10 13 1014.1 1013.9 0.0
19/04:00pm 18.4 13.6 5.6 43 6.3 NW 20 28 11 15 1014.2 1014.0 0.0
19/03:30pm 18.1 13.1 6.6 47 5.8 NNW 22 33 12 18 1014.3 1014.1 0.0
19/03:00pm 18.0 12.3 6.8 48 5.6 NW 26 35 14 19 1014.5 1014.3 0.0
19/02:30pm 18.9 14.2 6.1 43 6.4 NW 20 33 11 18 1014.6 1014.4 0.0
19/02:00pm 17.5 13.3 8.4 55 4.7 NNW 20 26 11 14 1015.1 1014.9 0.0
19/01:30pm 17.0 12.8 7.6 54 4.8 NNW 19 26 10 14 1015.6 1015.3 0.0
19/01:00pm 17.1 13.0 8.5 57 4.5 NW 20 30 11 16 1016.1 1015.8 0.0
19/12:30pm 16.8 13.7 9.0 60 4.1 NW 15 24 8 13 1016.6 1016.3 0.0
19/12:00pm 16.1 11.8 9.3 64 3.6 NW 22 33 12 18 1017.2 1017.0 0.0
19/11:30am 15.5 11.5 9.0 65 3.4 NNW 20 35 11 19 1017.5 1017.3 0.0
19/11:00am 15.4 11.8 10.0 70 2.8 NW 19 28 10 15 1017.8 1017.6 0.0
19/10:30am 15.1 11.5 9.9 71 2.7 NNW 19 24 10 13 1018.2 1018.0 0.0
19/10:00am 14.5 12.5 10.3 76 2.2 NW 11 17 6 9 1018.4 1018.2 0.0
19/09:30am 13.2 11.3 10.4 83 1.5 NNW 11 15 6 8 1018.7 1018.5 0.0
19/09:00am 12.3 10.3 10.2 87 1.1 NNW 11 15 6 8 1018.9 1018.7 0.0
19/08:30am 12.1 9.8 10.3 89 0.9 NNW 13 19 7 10 1018.9 1018.7 0.0
19/08:00am 12.2 10.2 10.1 87 1.1 NNW 11 15 6 8 1018.7 1018.5 0.0
19/07:30am 11.8 10.0 9.4 85 1.2 N 9 11 5 6 1018.4 1018.2 0.0
19/07:00am 11.4 9.9 9.0 85 1.2 N 7 9 4 5 1018.3 1018.1 0.0
19/06:30am 11.3 11.0 8.7 84 1.3 CALM 0 0 0 0 1018.2 1018.0 0.0
19/06:00am 11.1 10.8 8.5 84 1.3 CALM 0 0 0 0 1018.2 1018.0 0.0
19/05:30am 11.0 10.6 8.4 84 1.3 CALM 0 0 0 0 1018.2 1018.0 0.0
19/05:00am 10.4 10.0 8.2 86 1.1 CALM 0 6 0 3 1018.1 1017.9 0.0
19/04:30am 9.9 8.2 7.7 86 1.1 NNE 6 7 3 4 1018.2 1018.0 0.0
19/04:00am 10.4 9.9 7.8 84 1.3 CALM 0 0 0 0 1018.3 1018.1 0.0
19/03:30am 11.6 10.5 8.5 81 1.5 NNE 4 7 2 4 1018.4 1018.2 0.0
19/03:00am 11.0 10.6 8.2 83 1.4 CALM 0 0 0 0 1018.7 1018.5 0.0
19/02:30am 11.2 10.8 8.2 82 1.5 CALM 0 0 0 0 1019.0 1018.8 0.0
19/02:00am 11.0 9.8 8.2 83 1.4 WSW 4 6 2 3 1019.4 1019.2 0.0
19/01:30am 10.7 8.9 7.9 83 1.4 WSW 7 9 4 5 1019.6 1019.4 0.0
19/01:00am 10.5 8.3 7.9 84 1.3 WSW 9 13 5 7 1020.0 1019.7 0.0
19/12:30am 10.8 9.2 7.9 82 1.4 W 6 6 3 3 1020.1 1019.8 0.0
19/12:00am 12.4 10.7 8.5 77 2.0 W 7 11 4 6 1020.2 1019.9 0.0
 
Date/Time
EST
Temp
°C
App
Temp
°C
Dew
Point
°C
Rel
Hum
%
Delta-T
°C
Wind Press
QNH
hPa
Press
MSL
hPa
Rain since
9am
mm
Dir  Spd
km/h
Gust
km/h
Spd
kts
Gust
kts
18/11:30pm 13.0 11.0 8.7 75 2.2 WSW 9 13 5 7 1020.5 1020.2 0.0
18/11:00pm 12.8 10.9 8.9 77 2.0 W 9 13 5 7 1020.6 1020.3 0.0
18/10:30pm 12.7 10.4 9.0 78 1.9 WSW 11 15 6 8 1020.5 1020.2 0.0
18/10:00pm 12.8 10.9 9.1 78 1.9 W 9 13 5 7 1020.5 1020.2 0.0
18/09:30pm 13.4 11.8 8.9 74 2.3 WSW 7 9 4 5 1020.6 1020.3 0.0
18/09:00pm 14.3 12.3 8.7 69 2.9 W 9 11 5 6 1020.6 1020.3 0.0
18/08:30pm 15.1 13.0 8.1 63 3.6 WNW 9 11 5 6 1020.7 1020.4 0.0
18/08:00pm 14.6 12.7 7.6 63 3.5 NW 7 9 4 5 1020.8 1020.6 0.0
18/07:30pm 15.5 13.6 7.5 59 4.0 NNW 7 9 4 5 1021.0 1020.8 0.0
18/07:00pm 15.7 14.8 7.7 59 4.0 WNW 2 6 1 3 1021.0 1020.8 0.0
18/06:30pm 16.4 15.8 7.6 56 4.5 CALM 0 7 0 4 1020.9 1020.7 0.0
18/06:00pm 16.5 14.8 7.7 56 4.5 WNW 6 7 3 4 1020.9 1020.7 0.0
18/05:30pm 16.8 15.1 7.4 54 4.8 WNW 6 7 3 4 1020.7 1020.4 0.0
18/05:00pm 16.9 15.1 7.3 53 4.8 WNW 6 7 3 4 1020.7 1020.4 0.0
18/04:30pm 17.0 15.0 7.1 52 5.0 NW 7 9 4 5 1020.8 1020.6 0.0
18/04:00pm 17.1 15.2 7.5 53 4.9 W 7 11 4 6 1021.0 1020.8 0.0
18/03:30pm 17.0 14.7 7.4 53 4.9 WNW 9 13 5 7 1021.0 1020.8 0.0
18/03:00pm 16.9 14.6 7.5 54 4.8 WNW 9 15 5 8 1021.2 1021.0 0.0
18/02:30pm 16.7 14.1 7.9 56 4.5 W 11 20 6 11 1021.2 1021.0 0.0
18/02:00pm 16.9 13.9 7.8 55 4.6 WSW 13 20 7 11 1021.5 1021.3 0.0
18/01:30pm 17.2 14.9 7.5 53 4.9 WNW 9 17 5 9 1021.8 1021.6 0.0
18/01:00pm 17.1 14.0 7.2 52 5.0 WSW 13 20 7 11 1022.3 1022.1 0.0

Other formats

Comma delimited format used in spreadsheet applications
http://www.bom.gov.au/fwo/IDV60801/IDV60801.94836.axf

JavaScript Object Notation format (JSON) in row-major order
http://www.bom.gov.au/fwo/IDV60801/IDV60801.94836.json

Data quality

Most of these data are generated automatically and are frequently updated. Quality checks on data are not normally performed. It is possible for incorrect values to appear. Refer to information at About Latest Weather Observations and please check the disclaimer before using these data.